sensor_id;sensor_type;location;lat;lon;timestamp;P1;durP1;ratioP1;P2;durP2;ratioP2
84254;SDS011;74400;44.692;18.998;2024-02-21T00:01:07;17.00;;;9.25;;
84254;SDS011;74400;44.692;18.998;2024-02-21T00:03:33;19.90;;;9.88;;
84254;SDS011;74400;44.692;18.998;2024-02-21T00:05:58;19.73;;;9.88;;
84254;SDS011;74400;44.692;18.998;2024-02-21T00:08:24;21.45;;;10.48;;
84254;SDS011;74400;44.692;18.998;2024-02-21T00:10:50;17.30;;;10.10;;
84254;SDS011;74400;44.692;18.998;2024-02-21T00:13:15;18.55;;;10.23;;
84254;SDS011;74400;44.692;18.998;2024-02-21T00:15:41;17.25;;;9.50;;
84254;SDS011;74400;44.692;18.998;2024-02-21T00:18:06;18.80;;;8.85;;
84254;SDS011;74400;44.692;18.998;2024-02-21T00:20:32;15.57;;;8.25;;
84254;SDS011;74400;44.692;18.998;2024-02-21T00:22:58;12.60;;;7.18;;
84254;SDS011;74400;44.692;18.998;2024-02-21T00:25:23;12.07;;;7.32;;
84254;SDS011;74400;44.692;18.998;2024-02-21T00:27:49;11.93;;;6.72;;
84254;SDS011;74400;44.692;18.998;2024-02-21T00:30:15;12.52;;;6.78;;
84254;SDS011;74400;44.692;18.998;2024-02-21T00:32:40;15.93;;;7.47;;
84254;SDS011;74400;44.692;18.998;2024-02-21T00:35:06;12.85;;;6.90;;
84254;SDS011;74400;44.692;18.998;2024-02-21T00:37:32;19.27;;;7.20;;
84254;SDS011;74400;44.692;18.998;2024-02-21T00:39:58;13.45;;;7.30;;
84254;SDS011;74400;44.692;18.998;2024-02-21T00:42:23;12.13;;;6.22;;
84254;SDS011;74400;44.692;18.998;2024-02-21T00:44:49;10.55;;;5.95;;
84254;SDS011;74400;44.692;18.998;2024-02-21T00:47:14;9.93;;;5.03;;
84254;SDS011;74400;44.692;18.998;2024-02-21T00:49:40;8.10;;;4.05;;
84254;SDS011;74400;44.692;18.998;2024-02-21T00:52:06;8.57;;;4.68;;
84254;SDS011;74400;44.692;18.998;2024-02-21T00:54:32;7.65;;;4.60;;
84254;SDS011;74400;44.692;18.998;2024-02-21T00:56:57;7.18;;;4.30;;
84254;SDS011;74400;44.692;18.998;2024-02-21T00:59:23;9.73;;;4.57;;
84254;SDS011;74400;44.692;18.998;2024-02-21T01:01:48;6.50;;;3.92;;
84254;SDS011;74400;44.692;18.998;2024-02-21T01:04:14;7.45;;;4.13;;
84254;SDS011;74400;44.692;18.998;2024-02-21T01:06:40;6.50;;;4.30;;
84254;SDS011;74400;44.692;18.998;2024-02-21T01:09:08;7.20;;;4.28;;
84254;SDS011;74400;44.692;18.998;2024-02-21T01:11:33;8.55;;;4.57;;
84254;SDS011;74400;44.692;18.998;2024-02-21T01:13:59;7.55;;;4.35;;
84254;SDS011;74400;44.692;18.998;2024-02-21T01:16:25;6.90;;;3.90;;
84254;SDS011;74400;44.692;18.998;2024-02-21T01:18:51;8.70;;;4.55;;
84254;SDS011;74400;44.692;18.998;2024-02-21T01:21:16;8.93;;;4.35;;
84254;SDS011;74400;44.692;18.998;2024-02-21T01:23:42;9.57;;;5.15;;
84254;SDS011;74400;44.692;18.998;2024-02-21T01:26:08;8.23;;;4.88;;
84254;SDS011;74400;44.692;18.998;2024-02-21T01:28:34;8.90;;;5.20;;
84254;SDS011;74400;44.692;18.998;2024-02-21T01:31:00;8.20;;;5.05;;
84254;SDS011;74400;44.692;18.998;2024-02-21T01:33:26;8.50;;;4.30;;
84254;SDS011;74400;44.692;18.998;2024-02-21T01:35:52;8.32;;;4.75;;
84254;SDS011;74400;44.692;18.998;2024-02-21T01:38:18;8.82;;;5.07;;
84254;SDS011;74400;44.692;18.998;2024-02-21T01:40:43;10.70;;;5.60;;
84254;SDS011;74400;44.692;18.998;2024-02-21T01:45:37;7.78;;;4.15;;
84254;SDS011;74400;44.692;18.998;2024-02-21T01:48:02;7.50;;;4.60;;
84254;SDS011;74400;44.692;18.998;2024-02-21T01:50:28;9.05;;;4.60;;
84254;SDS011;74400;44.692;18.998;2024-02-21T01:52:54;5.85;;;4.10;;
84254;SDS011;74400;44.692;18.998;2024-02-21T01:55:20;6.80;;;4.30;;
84254;SDS011;74400;44.692;18.998;2024-02-21T01:57:46;7.00;;;4.82;;
84254;SDS011;74400;44.692;18.998;2024-02-21T02:00:13;8.55;;;4.90;;
84254;SDS011;74400;44.692;18.998;2024-02-21T02:02:40;8.15;;;5.15;;
84254;SDS011;74400;44.692;18.998;2024-02-21T02:05:07;9.05;;;4.93;;
84254;SDS011;74400;44.692;18.998;2024-02-21T02:07:33;8.32;;;5.03;;
84254;SDS011;74400;44.692;18.998;2024-02-21T02:09:59;10.57;;;5.20;;
84254;SDS011;74400;44.692;18.998;2024-02-21T02:12:25;8.73;;;5.25;;
84254;SDS011;74400;44.692;18.998;2024-02-21T02:14:58;10.73;;;5.15;;
84254;SDS011;74400;44.692;18.998;2024-02-21T02:17:24;9.57;;;5.55;;
84254;SDS011;74400;44.692;18.998;2024-02-21T02:19:50;9.60;;;5.10;;
84254;SDS011;74400;44.692;18.998;2024-02-21T02:22:17;10.68;;;5.35;;
84254;SDS011;74400;44.692;18.998;2024-02-21T02:24:47;10.38;;;6.05;;
84254;SDS011;74400;44.692;18.998;2024-02-21T02:27:13;9.27;;;5.57;;
84254;SDS011;74400;44.692;18.998;2024-02-21T02:29:39;9.45;;;6.43;;
84254;SDS011;74400;44.692;18.998;2024-02-21T02:32:04;10.13;;;5.88;;
84254;SDS011;74400;44.692;18.998;2024-02-21T02:34:31;10.63;;;5.45;;
84254;SDS011;74400;44.692;18.998;2024-02-21T02:36:56;11.40;;;6.22;;
84254;SDS011;74400;44.692;18.998;2024-02-21T02:39:22;11.10;;;6.28;;
84254;SDS011;74400;44.692;18.998;2024-02-21T02:41:48;9.90;;;6.05;;
84254;SDS011;74400;44.692;18.998;2024-02-21T02:44:13;9.73;;;5.65;;
84254;SDS011;74400;44.692;18.998;2024-02-21T02:46:42;10.18;;;6.55;;
84254;SDS011;74400;44.692;18.998;2024-02-21T02:49:08;11.45;;;6.35;;
84254;SDS011;74400;44.692;18.998;2024-02-21T02:51:34;11.55;;;6.25;;
84254;SDS011;74400;44.692;18.998;2024-02-21T02:54:00;11.13;;;6.03;;
84254;SDS011;74400;44.692;18.998;2024-02-21T02:56:27;9.48;;;6.40;;
84254;SDS011;74400;44.692;18.998;2024-02-21T02:58:53;10.30;;;5.95;;
84254;SDS011;74400;44.692;18.998;2024-02-21T03:01:18;9.52;;;6.13;;
84254;SDS011;74400;44.692;18.998;2024-02-21T03:03:44;11.02;;;6.40;;
84254;SDS011;74400;44.692;18.998;2024-02-21T03:06:12;12.10;;;6.18;;
84254;SDS011;74400;44.692;18.998;2024-02-21T03:08:38;11.23;;;6.38;;
84254;SDS011;74400;44.692;18.998;2024-02-21T03:11:05;8.80;;;5.95;;
84254;SDS011;74400;44.692;18.998;2024-02-21T03:13:30;10.75;;;5.95;;
84254;SDS011;74400;44.692;18.998;2024-02-21T03:15:56;9.80;;;5.63;;
84254;SDS011;74400;44.692;18.998;2024-02-21T03:18:22;9.98;;;5.47;;
84254;SDS011;74400;44.692;18.998;2024-02-21T03:20:47;8.48;;;5.07;;
84254;SDS011;74400;44.692;18.998;2024-02-21T03:23:13;8.52;;;5.70;;
84254;SDS011;74400;44.692;18.998;2024-02-21T03:25:39;9.98;;;5.60;;
84254;SDS011;74400;44.692;18.998;2024-02-21T03:28:04;6.70;;;4.65;;
84254;SDS011;74400;44.692;18.998;2024-02-21T03:30:30;11.63;;;5.57;;
84254;SDS011;74400;44.692;18.998;2024-02-21T03:32:56;9.20;;;5.22;;
84254;SDS011;74400;44.692;18.998;2024-02-21T03:35:21;6.55;;;4.40;;
84254;SDS011;74400;44.692;18.998;2024-02-21T03:37:47;7.60;;;4.72;;
84254;SDS011;74400;44.692;18.998;2024-02-21T03:40:13;8.63;;;4.82;;
84254;SDS011;74400;44.692;18.998;2024-02-21T03:42:39;5.55;;;4.00;;
84254;SDS011;74400;44.692;18.998;2024-02-21T03:45:05;5.47;;;4.03;;
84254;SDS011;74400;44.692;18.998;2024-02-21T03:47:31;8.07;;;4.20;;
84254;SDS011;74400;44.692;18.998;2024-02-21T03:49:56;6.85;;;4.80;;
84254;SDS011;74400;44.692;18.998;2024-02-21T03:52:23;6.32;;;4.35;;
84254;SDS011;74400;44.692;18.998;2024-02-21T03:54:49;8.63;;;5.07;;
84254;SDS011;74400;44.692;18.998;2024-02-21T03:57:14;6.88;;;4.47;;
84254;SDS011;74400;44.692;18.998;2024-02-21T03:59:40;6.63;;;4.50;;
84254;SDS011;74400;44.692;18.998;2024-02-21T04:02:06;7.70;;;4.55;;
84254;SDS011;74400;44.692;18.998;2024-02-21T04:04:36;6.07;;;4.40;;
84254;SDS011;74400;44.692;18.998;2024-02-21T04:07:02;7.28;;;4.82;;
84254;SDS011;74400;44.692;18.998;2024-02-21T04:09:32;7.60;;;4.57;;
84254;SDS011;74400;44.692;18.998;2024-02-21T04:11:59;5.97;;;4.15;;
84254;SDS011;74400;44.692;18.998;2024-02-21T04:14:26;7.88;;;4.70;;
84254;SDS011;74400;44.692;18.998;2024-02-21T04:16:51;8.02;;;4.50;;
84254;SDS011;74400;44.692;18.998;2024-02-21T04:19:17;9.05;;;4.90;;
84254;SDS011;74400;44.692;18.998;2024-02-21T04:21:43;8.95;;;5.40;;
84254;SDS011;74400;44.692;18.998;2024-02-21T04:24:09;8.60;;;5.47;;
84254;SDS011;74400;44.692;18.998;2024-02-21T04:26:35;6.93;;;4.90;;
84254;SDS011;74400;44.692;18.998;2024-02-21T04:29:01;7.22;;;4.72;;
84254;SDS011;74400;44.692;18.998;2024-02-21T04:31:27;8.85;;;5.38;;
84254;SDS011;74400;44.692;18.998;2024-02-21T04:33:53;9.18;;;4.90;;
84254;SDS011;74400;44.692;18.998;2024-02-21T04:36:19;10.30;;;5.22;;
84254;SDS011;74400;44.692;18.998;2024-02-21T04:38:45;10.57;;;5.35;;
84254;SDS011;74400;44.692;18.998;2024-02-21T04:41:10;8.65;;;5.07;;
84254;SDS011;74400;44.692;18.998;2024-02-21T04:43:37;7.10;;;4.57;;
84254;SDS011;74400;44.692;18.998;2024-02-21T04:46:02;7.63;;;4.53;;
84254;SDS011;74400;44.692;18.998;2024-02-21T04:48:29;7.20;;;5.13;;
84254;SDS011;74400;44.692;18.998;2024-02-21T04:50:55;9.57;;;4.72;;
84254;SDS011;74400;44.692;18.998;2024-02-21T04:53:21;8.05;;;4.57;;
84254;SDS011;74400;44.692;18.998;2024-02-21T04:55:46;7.15;;;4.55;;
84254;SDS011;74400;44.692;18.998;2024-02-21T04:58:12;8.48;;;4.53;;
84254;SDS011;74400;44.692;18.998;2024-02-21T05:00:38;6.90;;;4.65;;
84254;SDS011;74400;44.692;18.998;2024-02-21T05:03:03;5.53;;;4.10;;
84254;SDS011;74400;44.692;18.998;2024-02-21T05:05:29;8.32;;;4.50;;
84254;SDS011;74400;44.692;18.998;2024-02-21T05:07:55;7.45;;;4.38;;
84254;SDS011;74400;44.692;18.998;2024-02-21T05:10:20;8.00;;;3.80;;
84254;SDS011;74400;44.692;18.998;2024-02-21T05:12:46;8.20;;;4.22;;
84254;SDS011;74400;44.692;18.998;2024-02-21T05:15:12;9.60;;;5.28;;
84254;SDS011;74400;44.692;18.998;2024-02-21T05:17:37;10.63;;;5.25;;
84254;SDS011;74400;44.692;18.998;2024-02-21T05:20:03;8.88;;;4.95;;
84254;SDS011;74400;44.692;18.998;2024-02-21T05:22:29;8.70;;;4.78;;
84254;SDS011;74400;44.692;18.998;2024-02-21T05:24:55;7.90;;;4.03;;
84254;SDS011;74400;44.692;18.998;2024-02-21T05:27:20;8.30;;;4.28;;
84254;SDS011;74400;44.692;18.998;2024-02-21T05:29:46;6.78;;;4.00;;
84254;SDS011;74400;44.692;18.998;2024-02-21T05:32:13;6.68;;;3.90;;
84254;SDS011;74400;44.692;18.998;2024-02-21T05:34:39;8.40;;;4.55;;
84254;SDS011;74400;44.692;18.998;2024-02-21T05:37:05;8.85;;;4.50;;
84254;SDS011;74400;44.692;18.998;2024-02-21T05:39:31;9.93;;;4.55;;
84254;SDS011;74400;44.692;18.998;2024-02-21T05:41:56;8.25;;;4.50;;
84254;SDS011;74400;44.692;18.998;2024-02-21T05:47:20;7.38;;;4.60;;
84254;SDS011;74400;44.692;18.998;2024-02-21T05:49:46;8.10;;;4.60;;
84254;SDS011;74400;44.692;18.998;2024-02-21T05:52:12;7.13;;;4.93;;
84254;SDS011;74400;44.692;18.998;2024-02-21T05:54:38;8.30;;;5.03;;
84254;SDS011;74400;44.692;18.998;2024-02-21T05:57:05;6.22;;;4.15;;
84254;SDS011;74400;44.692;18.998;2024-02-21T06:02:40;8.20;;;4.63;;
84254;SDS011;74400;44.692;18.998;2024-02-21T06:05:06;9.07;;;4.25;;
84254;SDS011;74400;44.692;18.998;2024-02-21T06:07:33;9.00;;;4.43;;
84254;SDS011;74400;44.692;18.998;2024-02-21T06:10:02;5.80;;;3.83;;
84254;SDS011;74400;44.692;18.998;2024-02-21T06:12:28;7.63;;;4.05;;
84254;SDS011;74400;44.692;18.998;2024-02-21T06:14:54;4.53;;;3.45;;
84254;SDS011;74400;44.692;18.998;2024-02-21T06:17:19;7.47;;;3.63;;
84254;SDS011;74400;44.692;18.998;2024-02-21T06:19:45;4.55;;;3.00;;
84254;SDS011;74400;44.692;18.998;2024-02-21T06:22:12;5.85;;;3.30;;
84254;SDS011;74400;44.692;18.998;2024-02-21T06:24:37;6.00;;;3.05;;
84254;SDS011;74400;44.692;18.998;2024-02-21T06:27:09;7.00;;;3.88;;
84254;SDS011;74400;44.692;18.998;2024-02-21T06:29:37;6.47;;;3.40;;
84254;SDS011;74400;44.692;18.998;2024-02-21T06:32:03;6.00;;;3.10;;
84254;SDS011;74400;44.692;18.998;2024-02-21T06:37:27;12.07;;;4.68;;
84254;SDS011;74400;44.692;18.998;2024-02-21T06:39:53;21.95;;;5.18;;
84254;SDS011;74400;44.692;18.998;2024-02-21T06:50:15;12.35;;;5.68;;
84254;SDS011;74400;44.692;18.998;2024-02-21T06:56:09;19.98;;;5.72;;
84254;SDS011;74400;44.692;18.998;2024-02-21T06:58:35;12.50;;;4.32;;
84254;SDS011;74400;44.692;18.998;2024-02-21T07:01:01;9.00;;;3.67;;
84254;SDS011;74400;44.692;18.998;2024-02-21T07:03:27;10.35;;;4.57;;
84254;SDS011;74400;44.692;18.998;2024-02-21T07:05:53;11.70;;;6.13;;
84254;SDS011;74400;44.692;18.998;2024-02-21T07:08:18;11.32;;;6.40;;
84254;SDS011;74400;44.692;18.998;2024-02-21T07:10:44;13.73;;;7.55;;
84254;SDS011;74400;44.692;18.998;2024-02-21T07:13:10;15.32;;;6.45;;
84254;SDS011;74400;44.692;18.998;2024-02-21T07:18:33;15.48;;;5.05;;
84254;SDS011;74400;44.692;18.998;2024-02-21T07:20:59;10.50;;;3.78;;
84254;SDS011;74400;44.692;18.998;2024-02-21T07:23:25;11.50;;;6.72;;
84254;SDS011;74400;44.692;18.998;2024-02-21T07:25:51;11.15;;;6.05;;
84254;SDS011;74400;44.692;18.998;2024-02-21T07:28:16;8.20;;;4.93;;
84254;SDS011;74400;44.692;18.998;2024-02-21T07:30:42;8.23;;;4.50;;
84254;SDS011;74400;44.692;18.998;2024-02-21T07:33:08;6.65;;;3.90;;
84254;SDS011;74400;44.692;18.998;2024-02-21T07:35:34;8.77;;;4.25;;
84254;SDS011;74400;44.692;18.998;2024-02-21T07:38:05;7.55;;;4.43;;
84254;SDS011;74400;44.692;18.998;2024-02-21T07:40:34;8.77;;;5.72;;
84254;SDS011;74400;44.692;18.998;2024-02-21T07:43:00;13.05;;;7.60;;
84254;SDS011;74400;44.692;18.998;2024-02-21T07:50:54;8.98;;;4.32;;
84254;SDS011;74400;44.692;18.998;2024-02-21T07:53:20;7.38;;;4.30;;
84254;SDS011;74400;44.692;18.998;2024-02-21T07:55:53;8.88;;;4.40;;
84254;SDS011;74400;44.692;18.998;2024-02-21T07:58:19;8.55;;;5.40;;
84254;SDS011;74400;44.692;18.998;2024-02-21T08:00:45;9.32;;;4.47;;
84254;SDS011;74400;44.692;18.998;2024-02-21T08:05:37;7.15;;;4.25;;
84254;SDS011;74400;44.692;18.998;2024-02-21T08:08:03;7.38;;;4.05;;
84254;SDS011;74400;44.692;18.998;2024-02-21T08:10:29;11.00;;;4.10;;
84254;SDS011;74400;44.692;18.998;2024-02-21T08:12:55;5.80;;;2.90;;
84254;SDS011;74400;44.692;18.998;2024-02-21T08:15:21;6.05;;;2.80;;
84254;SDS011;74400;44.692;18.998;2024-02-21T08:17:50;5.15;;;3.05;;
84254;SDS011;74400;44.692;18.998;2024-02-21T08:20:16;6.93;;;3.28;;
84254;SDS011;74400;44.692;18.998;2024-02-21T08:22:42;5.75;;;3.30;;
84254;SDS011;74400;44.692;18.998;2024-02-21T08:25:07;5.63;;;3.30;;
84254;SDS011;74400;44.692;18.998;2024-02-21T08:30:35;6.15;;;3.13;;
84254;SDS011;74400;44.692;18.998;2024-02-21T08:33:02;4.63;;;2.58;;
84254;SDS011;74400;44.692;18.998;2024-02-21T08:35:29;6.13;;;2.88;;
84254;SDS011;74400;44.692;18.998;2024-02-21T08:37:55;5.28;;;2.70;;
84254;SDS011;74400;44.692;18.998;2024-02-21T08:40:22;6.60;;;2.78;;
84254;SDS011;74400;44.692;18.998;2024-02-21T08:42:47;5.38;;;2.80;;
84254;SDS011;74400;44.692;18.998;2024-02-21T08:48:15;3.72;;;2.35;;
84254;SDS011;74400;44.692;18.998;2024-02-21T08:50:44;4.15;;;1.98;;
84254;SDS011;74400;44.692;18.998;2024-02-21T08:53:12;3.58;;;2.00;;
84254;SDS011;74400;44.692;18.998;2024-02-21T08:55:39;3.17;;;1.85;;
84254;SDS011;74400;44.692;18.998;2024-02-21T08:58:04;3.88;;;1.63;;
84254;SDS011;74400;44.692;18.998;2024-02-21T09:00:30;3.00;;;1.65;;
84254;SDS011;74400;44.692;18.998;2024-02-21T09:02:56;6.47;;;2.33;;
84254;SDS011;74400;44.692;18.998;2024-02-21T09:05:22;2.25;;;1.70;;
84254;SDS011;74400;44.692;18.998;2024-02-21T09:07:50;5.20;;;2.03;;
84254;SDS011;74400;44.692;18.998;2024-02-21T09:10:16;4.32;;;2.42;;
84254;SDS011;74400;44.692;18.998;2024-02-21T09:12:41;4.07;;;2.10;;
84254;SDS011;74400;44.692;18.998;2024-02-21T09:15:07;4.75;;;2.25;;
84254;SDS011;74400;44.692;18.998;2024-02-21T09:17:35;7.10;;;2.13;;
84254;SDS011;74400;44.692;18.998;2024-02-21T09:20:00;3.05;;;1.40;;
84254;SDS011;74400;44.692;18.998;2024-02-21T09:22:28;3.35;;;1.50;;
84254;SDS011;74400;44.692;18.998;2024-02-21T09:24:54;4.03;;;1.45;;
84254;SDS011;74400;44.692;18.998;2024-02-21T09:27:21;2.50;;;1.50;;
84254;SDS011;74400;44.692;18.998;2024-02-21T09:29:49;4.65;;;1.90;;
84254;SDS011;74400;44.692;18.998;2024-02-21T09:32:14;5.18;;;2.97;;
84254;SDS011;74400;44.692;18.998;2024-02-21T09:34:40;8.00;;;3.60;;
84254;SDS011;74400;44.692;18.998;2024-02-21T09:37:06;4.97;;;2.85;;
84254;SDS011;74400;44.692;18.998;2024-02-21T09:39:32;7.82;;;3.30;;
84254;SDS011;74400;44.692;18.998;2024-02-21T09:41:58;8.35;;;3.15;;
84254;SDS011;74400;44.692;18.998;2024-02-21T09:44:30;8.57;;;3.30;;
84254;SDS011;74400;44.692;18.998;2024-02-21T09:47:02;3.20;;;1.33;;
84254;SDS011;74400;44.692;18.998;2024-02-21T09:49:30;2.42;;;1.42;;
84254;SDS011;74400;44.692;18.998;2024-02-21T09:52:20;4.40;;;1.63;;
84254;SDS011;74400;44.692;18.998;2024-02-21T09:54:47;2.38;;;1.42;;
84254;SDS011;74400;44.692;18.998;2024-02-21T09:57:14;4.43;;;1.67;;
84254;SDS011;74400;44.692;18.998;2024-02-21T09:59:40;2.10;;;1.45;;
84254;SDS011;74400;44.692;18.998;2024-02-21T10:02:07;5.10;;;1.65;;
84254;SDS011;74400;44.692;18.998;2024-02-21T10:04:51;3.90;;;1.40;;
84254;SDS011;74400;44.692;18.998;2024-02-21T10:07:17;3.97;;;1.40;;
84254;SDS011;74400;44.692;18.998;2024-02-21T10:09:48;6.60;;;1.90;;
84254;SDS011;74400;44.692;18.998;2024-02-21T10:12:13;4.45;;;1.63;;
84254;SDS011;74400;44.692;18.998;2024-02-21T10:14:40;6.50;;;1.77;;
84254;SDS011;74400;44.692;18.998;2024-02-21T10:17:06;5.32;;;1.42;;
84254;SDS011;74400;44.692;18.998;2024-02-21T10:19:38;3.08;;;1.55;;
84254;SDS011;74400;44.692;18.998;2024-02-21T10:22:08;3.33;;;1.60;;
84254;SDS011;74400;44.692;18.998;2024-02-21T10:27:38;7.45;;;1.70;;
84254;SDS011;74400;44.692;18.998;2024-02-21T10:30:08;4.10;;;1.13;;
84254;SDS011;74400;44.692;18.998;2024-02-21T10:35:35;4.32;;;2.03;;
84254;SDS011;74400;44.692;18.998;2024-02-21T10:38:00;4.18;;;1.70;;
84254;SDS011;74400;44.692;18.998;2024-02-21T10:40:32;3.03;;;1.45;;
84254;SDS011;74400;44.692;18.998;2024-02-21T10:42:59;3.15;;;1.67;;
84254;SDS011;74400;44.692;18.998;2024-02-21T10:45:30;4.47;;;1.73;;
84254;SDS011;74400;44.692;18.998;2024-02-21T10:59:00;6.18;;;1.92;;
84254;SDS011;74400;44.692;18.998;2024-02-21T11:01:30;7.05;;;2.03;;
84254;SDS011;74400;44.692;18.998;2024-02-21T11:04:10;3.90;;;1.70;;
84254;SDS011;74400;44.692;18.998;2024-02-21T11:06:40;3.78;;;1.40;;
84254;SDS011;74400;44.692;18.998;2024-02-21T11:09:08;2.92;;;0.93;;
84254;SDS011;74400;44.692;18.998;2024-02-21T11:15:18;5.50;;;1.55;;
84254;SDS011;74400;44.692;18.998;2024-02-21T11:17:53;4.18;;;1.20;;
84254;SDS011;74400;44.692;18.998;2024-02-21T11:20:19;4.05;;;1.50;;
84254;SDS011;74400;44.692;18.998;2024-02-21T11:22:46;8.43;;;3.55;;
84254;SDS011;74400;44.692;18.998;2024-02-21T11:25:13;5.22;;;2.35;;
84254;SDS011;74400;44.692;18.998;2024-02-21T11:31:40;5.13;;;2.10;;
84254;SDS011;74400;44.692;18.998;2024-02-21T11:34:10;3.75;;;1.17;;
84254;SDS011;74400;44.692;18.998;2024-02-21T11:36:50;6.18;;;2.00;;
84254;SDS011;74400;44.692;18.998;2024-02-21T11:39:20;5.63;;;1.55;;
84254;SDS011;74400;44.692;18.998;2024-02-21T11:41:47;5.00;;;1.20;;
84254;SDS011;74400;44.692;18.998;2024-02-21T11:48:15;2.53;;;1.10;;
84254;SDS011;74400;44.692;18.998;2024-02-21T11:50:41;4.35;;;1.52;;
84254;SDS011;74400;44.692;18.998;2024-02-21T11:53:07;4.63;;;1.58;;
84254;SDS011;74400;44.692;18.998;2024-02-21T11:55:32;6.13;;;2.08;;
84254;SDS011;74400;44.692;18.998;2024-02-21T11:57:59;5.75;;;1.85;;
84254;SDS011;74400;44.692;18.998;2024-02-21T12:00:25;8.23;;;1.92;;
84254;SDS011;74400;44.692;18.998;2024-02-21T12:03:01;5.78;;;2.10;;
84254;SDS011;74400;44.692;18.998;2024-02-21T12:05:28;7.47;;;1.80;;
84254;SDS011;74400;44.692;18.998;2024-02-21T12:07:54;4.30;;;1.98;;
84254;SDS011;74400;44.692;18.998;2024-02-21T12:10:20;5.10;;;1.80;;
84254;SDS011;74400;44.692;18.998;2024-02-21T12:12:46;5.00;;;1.45;;
84254;SDS011;74400;44.692;18.998;2024-02-21T12:17:37;4.18;;;1.33;;
84254;SDS011;74400;44.692;18.998;2024-02-21T12:20:05;5.43;;;1.75;;
84254;SDS011;74400;44.692;18.998;2024-02-21T12:22:43;5.60;;;1.88;;
84254;SDS011;74400;44.692;18.998;2024-02-21T12:27:37;4.20;;;1.50;;
84254;SDS011;74400;44.692;18.998;2024-02-21T12:30:03;7.40;;;2.25;;
84254;SDS011;74400;44.692;18.998;2024-02-21T12:32:35;6.53;;;2.28;;
84254;SDS011;74400;44.692;18.998;2024-02-21T12:35:01;5.20;;;1.40;;
84254;SDS011;74400;44.692;18.998;2024-02-21T12:37:27;3.55;;;1.42;;
84254;SDS011;74400;44.692;18.998;2024-02-21T12:39:54;3.92;;;1.23;;
84254;SDS011;74400;44.692;18.998;2024-02-21T12:42:19;7.00;;;1.67;;
84254;SDS011;74400;44.692;18.998;2024-02-21T12:44:45;4.97;;;2.25;;
84254;SDS011;74400;44.692;18.998;2024-02-21T12:53:20;5.80;;;1.98;;
84254;SDS011;74400;44.692;18.998;2024-02-21T12:55:48;5.82;;;2.55;;
84254;SDS011;74400;44.692;18.998;2024-02-21T12:58:15;7.47;;;2.17;;
84254;SDS011;74400;44.692;18.998;2024-02-21T13:00:43;4.03;;;2.17;;
84254;SDS011;74400;44.692;18.998;2024-02-21T13:03:10;3.25;;;1.60;;
84254;SDS011;74400;44.692;18.998;2024-02-21T13:05:38;4.68;;;2.35;;
84254;SDS011;74400;44.692;18.998;2024-02-21T13:08:08;5.88;;;2.30;;
84254;SDS011;74400;44.692;18.998;2024-02-21T13:10:36;5.07;;;2.10;;
84254;SDS011;74400;44.692;18.998;2024-02-21T13:13:03;3.72;;;1.67;;
84254;SDS011;74400;44.692;18.998;2024-02-21T13:15:29;4.82;;;1.55;;
84254;SDS011;74400;44.692;18.998;2024-02-21T13:17:56;8.48;;;1.80;;
84254;SDS011;74400;44.692;18.998;2024-02-21T13:20:31;3.15;;;1.60;;
84254;SDS011;74400;44.692;18.998;2024-02-21T13:22:58;5.20;;;1.77;;
84254;SDS011;74400;44.692;18.998;2024-02-21T13:25:25;4.22;;;1.67;;
84254;SDS011;74400;44.692;18.998;2024-02-21T13:27:51;4.35;;;2.22;;
84254;SDS011;74400;44.692;18.998;2024-02-21T13:30:18;6.05;;;2.40;;
84254;SDS011;74400;44.692;18.998;2024-02-21T13:32:44;9.50;;;3.60;;
84254;SDS011;74400;44.692;18.998;2024-02-21T13:38:38;4.95;;;1.63;;
84254;SDS011;74400;44.692;18.998;2024-02-21T13:41:04;5.00;;;1.88;;
84254;SDS011;74400;44.692;18.998;2024-02-21T13:43:33;4.70;;;1.70;;
84254;SDS011;74400;44.692;18.998;2024-02-21T13:46:01;5.57;;;2.33;;
84254;SDS011;74400;44.692;18.998;2024-02-21T13:48:35;6.88;;;1.88;;
84254;SDS011;74400;44.692;18.998;2024-02-21T13:51:01;7.03;;;2.88;;
84254;SDS011;74400;44.692;18.998;2024-02-21T13:53:29;7.65;;;2.88;;
84254;SDS011;74400;44.692;18.998;2024-02-21T13:55:55;7.22;;;2.08;;
84254;SDS011;74400;44.692;18.998;2024-02-21T13:58:21;4.40;;;2.28;;
84254;SDS011;74400;44.692;18.998;2024-02-21T14:00:47;5.60;;;3.08;;
84254;SDS011;74400;44.692;18.998;2024-02-21T14:03:13;7.18;;;1.95;;
84254;SDS011;74400;44.692;18.998;2024-02-21T14:05:39;5.32;;;2.28;;
84254;SDS011;74400;44.692;18.998;2024-02-21T14:08:06;5.38;;;1.70;;
84254;SDS011;74400;44.692;18.998;2024-02-21T14:10:33;4.95;;;2.00;;
84254;SDS011;74400;44.692;18.998;2024-02-21T14:12:59;7.20;;;2.25;;
84254;SDS011;74400;44.692;18.998;2024-02-21T14:15:30;7.55;;;2.25;;
84254;SDS011;74400;44.692;18.998;2024-02-21T14:18:00;6.60;;;2.10;;
84254;SDS011;74400;44.692;18.998;2024-02-21T14:20:25;5.32;;;1.80;;
84254;SDS011;74400;44.692;18.998;2024-02-21T14:22:52;5.30;;;2.08;;
84254;SDS011;74400;44.692;18.998;2024-02-21T14:25:17;5.20;;;2.17;;
84254;SDS011;74400;44.692;18.998;2024-02-21T14:27:44;9.18;;;2.13;;
84254;SDS011;74400;44.692;18.998;2024-02-21T14:32:37;7.05;;;1.95;;
84254;SDS011;74400;44.692;18.998;2024-02-21T14:35:05;7.10;;;3.33;;
84254;SDS011;74400;44.692;18.998;2024-02-21T14:37:31;5.18;;;2.35;;
84254;SDS011;74400;44.692;18.998;2024-02-21T14:44:01;10.82;;;3.45;;
84254;SDS011;74400;44.692;18.998;2024-02-21T14:46:28;5.32;;;2.28;;
84254;SDS011;74400;44.692;18.998;2024-02-21T14:52:10;6.63;;;2.20;;
84254;SDS011;74400;44.692;18.998;2024-02-21T14:54:37;4.70;;;2.15;;
84254;SDS011;74400;44.692;18.998;2024-02-21T14:57:04;5.00;;;1.80;;
84254;SDS011;74400;44.692;18.998;2024-02-21T14:59:32;7.35;;;2.30;;
84254;SDS011;74400;44.692;18.998;2024-02-21T15:01:58;5.75;;;2.40;;
84254;SDS011;74400;44.692;18.998;2024-02-21T15:07:21;6.15;;;2.47;;
84254;SDS011;74400;44.692;18.998;2024-02-21T15:09:52;6.55;;;2.30;;
84254;SDS011;74400;44.692;18.998;2024-02-21T15:12:18;7.93;;;2.20;;
84254;SDS011;74400;44.692;18.998;2024-02-21T15:14:43;5.70;;;2.28;;
84254;SDS011;74400;44.692;18.998;2024-02-21T15:17:10;2.63;;;1.75;;
84254;SDS011;74400;44.692;18.998;2024-02-21T15:19:37;8.10;;;2.55;;
84254;SDS011;74400;44.692;18.998;2024-02-21T15:22:04;4.78;;;2.40;;
84254;SDS011;74400;44.692;18.998;2024-02-21T15:24:29;5.40;;;2.20;;
84254;SDS011;74400;44.692;18.998;2024-02-21T15:26:55;6.50;;;2.58;;
84254;SDS011;74400;44.692;18.998;2024-02-21T15:29:21;7.65;;;2.28;;
84254;SDS011;74400;44.692;18.998;2024-02-21T15:35:28;10.15;;;2.75;;
84254;SDS011;74400;44.692;18.998;2024-02-21T15:37:54;6.30;;;2.92;;
84254;SDS011;74400;44.692;18.998;2024-02-21T15:40:23;8.77;;;2.30;;
84254;SDS011;74400;44.692;18.998;2024-02-21T15:42:49;7.38;;;2.72;;
84254;SDS011;74400;44.692;18.998;2024-02-21T15:45:15;9.45;;;2.58;;
84254;SDS011;74400;44.692;18.998;2024-02-21T15:47:41;8.20;;;3.00;;
84254;SDS011;74400;44.692;18.998;2024-02-21T15:50:08;7.40;;;2.55;;
84254;SDS011;74400;44.692;18.998;2024-02-21T15:52:35;6.32;;;2.70;;
84254;SDS011;74400;44.692;18.998;2024-02-21T15:55:03;6.97;;;1.92;;
84254;SDS011;74400;44.692;18.998;2024-02-21T15:57:29;5.72;;;1.92;;
84254;SDS011;74400;44.692;18.998;2024-02-21T15:59:57;4.97;;;1.73;;
84254;SDS011;74400;44.692;18.998;2024-02-21T16:02:23;6.55;;;1.95;;
84254;SDS011;74400;44.692;18.998;2024-02-21T16:04:49;4.10;;;1.60;;
84254;SDS011;74400;44.692;18.998;2024-02-21T16:07:15;5.22;;;1.98;;
84254;SDS011;74400;44.692;18.998;2024-02-21T16:09:41;6.57;;;1.90;;